createdAt,value
2019-06-25T00:00:32.833Z,91.81
2019-06-25T00:01:34.356Z,92.19
2019-06-25T00:02:35.764Z,92.96
2019-06-25T00:03:37.167Z,92.67
2019-06-25T00:04:38.561Z,92.67
2019-06-25T00:05:39.990Z,92.86
2019-06-25T00:06:41.393Z,93.05
2019-06-25T00:07:42.792Z,93.44
2019-06-25T00:08:44.197Z,93.25
2019-06-25T00:09:45.581Z,93.73
2019-06-25T00:10:46.993Z,93.63
2019-06-25T00:11:48.395Z,94.88
2019-06-25T00:12:49.800Z,94.98
2019-06-25T00:13:51.308Z,94.64
2019-06-25T00:14:52.717Z,94.69
2019-06-25T00:15:54.113Z,95.12
2019-06-25T00:16:55.520Z,94.88
2019-06-25T00:17:56.913Z,94.45
2019-06-25T00:18:58.319Z,94.83
2019-06-25T00:19:59.810Z,94.93
2019-06-25T00:21:01.188Z,95.41
2019-06-25T00:22:02.564Z,96.03
2019-06-25T00:23:03.969Z,96.03
2019-06-25T00:24:05.377Z,95.84
2019-06-25T00:25:06.774Z,96.51
2019-06-25T00:26:08.176Z,96.27
2019-06-25T00:27:09.578Z,96.94
2019-06-25T00:28:10.981Z,96.75
2019-06-25T00:29:12.405Z,96.37
2019-06-25T00:30:13.816Z,96.37
2019-06-25T00:31:15.211Z,97.04
2019-06-25T00:32:16.606Z,97.61
2019-06-25T00:33:18.006Z,97.38
2019-06-25T00:34:19.926Z,97.52
2019-06-25T00:35:21.326Z,97.61
2019-06-25T00:36:22.726Z,97.04
2019-06-25T00:37:24.131Z,97.24
2019-06-25T00:38:25.534Z,97.71
2019-06-25T00:39:26.937Z,98.19
2019-06-25T00:40:28.344Z,97.52
2019-06-25T00:41:29.748Z,97.61
2019-06-25T00:42:31.160Z,98.10
2019-06-25T00:43:32.566Z,98.00
2019-06-25T00:44:33.974Z,98.77
2019-06-25T00:45:35.382Z,98.43
2019-06-25T00:46:36.776Z,98.58
2019-06-25T00:47:38.185Z,98.48
2019-06-25T00:48:39.582Z,98.48
2019-06-25T00:49:40.972Z,98.19
2019-06-25T00:50:42.370Z,98.29
2019-06-25T00:51:43.778Z,98.38
2019-06-25T00:52:45.164Z,98.67
2019-06-25T00:53:46.568Z,98.58
2019-06-25T00:54:47.969Z,99.05
2019-06-25T00:55:49.374Z,98.86
2019-06-25T00:56:50.769Z,98.48
2019-06-25T00:57:52.182Z,99.34
2019-06-25T00:58:53.571Z,99.05
2019-06-25T00:59:54.975Z,99.54
2019-06-25T01:00:56.373Z,98.86
2019-06-25T01:01:57.787Z,99.54
2019-06-25T01:02:59.189Z,98.96
2019-06-25T01:04:00.594Z,99.05
2019-06-25T01:05:02.009Z,98.67
2019-06-25T01:06:03.408Z,99.25
2019-06-25T01:07:04.808Z,98.86
2019-06-25T01:08:06.222Z,99.05
2019-06-25T01:09:07.630Z,99.73
2019-06-25T01:10:09.023Z,99.99
2019-06-25T01:11:10.422Z,99.25
2019-06-25T01:12:11.814Z,98.48
2019-06-25T01:13:13.226Z,99.99
2019-06-25T01:14:14.625Z,99.63
2019-06-25T01:15:16.051Z,99.92
2019-06-25T01:16:17.441Z,99.63
2019-06-25T01:17:18.842Z,99.63
2019-06-25T01:18:20.248Z,99.73
2019-06-25T01:19:21.635Z,99.99
2019-06-25T01:20:23.048Z,99.99
2019-06-25T01:21:24.437Z,99.99
2019-06-25T01:22:25.843Z,99.99
2019-06-25T01:23:27.261Z,99.99
2019-06-25T01:24:28.669Z,99.99
2019-06-25T01:25:30.079Z,99.99
2019-06-25T01:26:31.472Z,99.99
2019-06-25T01:27:32.874Z,99.99
2019-06-25T01:28:34.279Z,99.99
2019-06-25T01:29:35.673Z,99.99
2019-06-25T01:30:37.094Z,99.99
2019-06-25T01:31:38.519Z,99.99
2019-06-25T01:32:39.911Z,99.99
2019-06-25T01:33:41.329Z,99.99
2019-06-25T01:34:42.737Z,99.99
2019-06-25T01:35:44.129Z,99.99
2019-06-25T01:36:45.542Z,99.99
2019-06-25T01:37:47.540Z,99.99
2019-06-25T01:38:48.959Z,99.63
2019-06-25T01:39:50.376Z,99.73
2019-06-25T01:40:51.953Z,99.54
2019-06-25T01:41:53.216Z,99.44
2019-06-25T01:42:54.636Z,99.25
2019-06-25T01:43:56.046Z,99.54
2019-06-25T01:44:57.454Z,98.96
2019-06-25T01:45:58.854Z,98.58
2019-06-25T01:47:00.284Z,98.86
2019-06-25T01:48:01.703Z,98.67
2019-06-25T01:49:03.099Z,98.38
2019-06-25T01:50:04.497Z,98.48
2019-06-25T01:51:05.907Z,97.52
2019-06-25T01:52:07.261Z,97.57
2019-06-25T01:53:08.655Z,96.85
2019-06-25T01:54:10.073Z,96.66
2019-06-25T01:55:11.490Z,97.09
2019-06-25T01:56:12.895Z,96.80
2019-06-25T01:57:14.291Z,96.61
2019-06-25T01:58:15.715Z,96.99
2019-06-25T01:59:17.119Z,96.89
2019-06-25T02:00:18.529Z,96.61
2019-06-25T02:01:19.924Z,96.42
2019-06-25T02:02:21.321Z,96.32
2019-06-25T02:03:22.716Z,96.13
2019-06-25T02:04:24.108Z,96.32
2019-06-25T02:05:25.515Z,96.13
2019-06-25T02:06:26.927Z,95.55
2019-06-25T02:07:28.322Z,95.84
2019-06-25T02:08:29.720Z,95.36
2019-06-25T02:09:31.130Z,95.36
2019-06-25T02:10:32.532Z,95.26
2019-06-25T02:11:33.960Z,95.84
2019-06-25T02:12:35.378Z,94.98
2019-06-25T02:13:36.788Z,94.69
2019-06-25T02:14:38.201Z,94.49
2019-06-25T02:15:40.360Z,94.11
2019-06-25T02:16:41.764Z,94.31
2019-06-25T02:17:43.166Z,94.31
2019-06-25T02:18:44.574Z,93.92
2019-06-25T02:19:45.978Z,93.44
2019-06-25T02:20:47.381Z,92.91
2019-06-25T02:21:48.795Z,93.01
2019-06-25T02:22:50.195Z,92.72
2019-06-25T02:23:51.634Z,92.91
2019-06-25T02:24:53.020Z,92.81
2019-06-25T02:25:54.432Z,91.85
2019-06-25T02:26:55.851Z,92.72
2019-06-25T02:27:57.275Z,91.75
2019-06-25T02:28:58.694Z,92.05
2019-06-25T02:30:00.107Z,92.05
2019-06-25T02:31:07.637Z,91.56
2019-06-25T02:32:02.906Z,90.80
2019-06-25T02:33:04.313Z,90.60
2019-06-25T02:34:05.728Z,89.83
2019-06-25T02:35:07.125Z,89.36
2019-06-25T02:36:08.524Z,90.22
2019-06-25T02:37:09.928Z,89.93
2019-06-25T02:38:11.332Z,89.83
2019-06-25T02:39:12.733Z,89.93
2019-06-25T02:40:14.164Z,89.74
2019-06-25T02:41:15.500Z,89.54
2019-06-25T02:42:16.907Z,89.64
2019-06-25T02:43:18.311Z,89.36
2019-06-25T02:44:19.730Z,89.54
2019-06-25T02:45:21.115Z,90.07
2019-06-25T02:46:22.532Z,89.40
2019-06-25T02:47:23.942Z,89.01
2019-06-25T02:48:25.353Z,88.92
2019-06-25T02:49:26.767Z,89.40
2019-06-25T02:50:28.170Z,88.92
2019-06-25T02:51:29.574Z,88.92
2019-06-25T02:52:30.978Z,89.07
2019-06-25T02:53:32.381Z,88.63
2019-06-25T02:54:33.793Z,88.63
2019-06-25T02:55:35.194Z,88.53
2019-06-25T02:56:36.603Z,88.34
2019-06-25T02:57:38.000Z,88.44
2019-06-25T02:58:39.410Z,88.44
2019-06-25T02:59:40.826Z,88.44
2019-06-25T03:00:42.226Z,88.06
2019-06-25T03:01:43.624Z,87.96
2019-06-25T03:02:45.666Z,88.34
2019-06-25T03:03:47.086Z,87.96
2019-06-25T03:04:48.484Z,88.24
2019-06-25T03:05:49.896Z,88.06
2019-06-25T03:06:51.317Z,87.38
2019-06-25T03:07:52.711Z,87.57
2019-06-25T03:08:54.118Z,87.48
2019-06-25T03:09:55.527Z,87.76
2019-06-25T03:10:56.947Z,87.67
2019-06-25T03:11:58.355Z,87.09
2019-06-25T03:12:59.765Z,87.48
2019-06-25T03:14:01.166Z,86.80
2019-06-25T03:15:02.644Z,86.52
2019-06-25T03:16:03.971Z,86.61
2019-06-25T03:17:05.395Z,86.22
2019-06-25T03:18:06.796Z,86.22
2019-06-25T03:19:08.221Z,86.27
2019-06-25T03:20:09.642Z,85.75
2019-06-25T03:21:13.693Z,85.69
2019-06-25T03:22:12.434Z,85.69
2019-06-25T03:23:13.834Z,85.60
2019-06-25T03:24:15.251Z,85.69
2019-06-25T03:25:16.646Z,85.88
2019-06-25T03:26:18.044Z,85.50
2019-06-25T03:27:19.448Z,85.69
2019-06-25T03:28:20.854Z,85.11
2019-06-25T03:29:22.272Z,85.78
2019-06-25T03:30:23.676Z,85.60
2019-06-25T03:31:25.085Z,85.50
2019-06-25T03:32:26.505Z,85.98
2019-06-25T03:33:27.906Z,85.50
2019-06-25T03:34:29.293Z,85.60
2019-06-25T03:35:30.702Z,85.98
2019-06-25T03:36:32.092Z,85.69
2019-06-25T03:37:33.512Z,85.31
2019-06-25T03:38:34.965Z,85.21
2019-06-25T03:39:36.336Z,85.98
2019-06-25T03:40:37.734Z,85.98
2019-06-25T03:41:39.135Z,85.78
2019-06-25T03:42:40.552Z,85.78
2019-06-25T03:43:41.992Z,85.50
2019-06-25T03:44:43.417Z,85.98
2019-06-25T03:45:44.844Z,85.50
2019-06-25T03:46:46.260Z,85.69
2019-06-25T03:47:47.670Z,85.78
2019-06-25T03:48:49.086Z,85.60
2019-06-25T03:49:50.481Z,85.69
2019-06-25T03:50:51.889Z,85.60
2019-06-25T03:51:53.289Z,85.60
2019-06-25T03:52:54.709Z,85.78
2019-06-25T03:53:56.138Z,85.78
2019-06-25T03:54:57.555Z,85.60
2019-06-25T03:55:58.971Z,85.88
2019-06-25T03:57:00.381Z,85.69
2019-06-25T03:58:01.814Z,85.98
2019-06-25T03:59:03.218Z,85.88
2019-06-25T04:00:04.631Z,86.08
2019-06-25T04:01:06.040Z,85.50
2019-06-25T04:02:16.788Z,85.21
2019-06-25T04:03:08.822Z,85.44
2019-06-25T04:04:10.222Z,85.25
2019-06-25T04:05:11.616Z,85.64
2019-06-25T04:06:13.058Z,85.93
2019-06-25T04:07:14.459Z,85.64
2019-06-25T04:08:15.870Z,84.67
2019-06-25T04:09:17.285Z,85.06
2019-06-25T04:10:18.692Z,84.48
2019-06-25T04:11:20.108Z,84.48
2019-06-25T04:12:21.504Z,84.48
2019-06-25T04:13:22.912Z,84.19
2019-06-25T04:14:24.320Z,83.91
2019-06-25T04:15:25.715Z,84.19
2019-06-25T04:16:27.130Z,83.91
2019-06-25T04:17:28.592Z,82.89
2019-06-25T04:18:30.010Z,82.79
2019-06-25T04:19:31.410Z,83.66
2019-06-25T04:20:32.815Z,82.70
2019-06-25T04:21:34.227Z,83.08
2019-06-25T04:22:35.636Z,82.98
2019-06-25T04:23:37.041Z,82.50
2019-06-25T04:24:38.443Z,81.83
2019-06-25T04:25:39.854Z,82.50
2019-06-25T04:26:41.270Z,82.41
2019-06-25T04:27:42.671Z,81.93
2019-06-25T04:28:44.092Z,82.02
2019-06-25T04:29:45.502Z,82.12
2019-06-25T04:30:47.147Z,82.89
2019-06-25T04:31:48.310Z,82.21
2019-06-25T04:32:49.718Z,81.48
2019-06-25T04:33:51.138Z,81.10
2019-06-25T04:34:52.555Z,81.48
2019-06-25T04:35:53.952Z,81.68
2019-06-25T04:36:55.366Z,80.71
2019-06-25T04:37:56.816Z,80.43
2019-06-25T04:38:58.191Z,79.21
2019-06-25T04:39:59.590Z,79.21
2019-06-25T04:41:00.994Z,79.41
2019-06-25T04:42:02.409Z,79.31
2019-06-25T04:43:03.813Z,78.73
2019-06-25T04:44:05.226Z,78.54
2019-06-25T04:45:06.643Z,78.25
2019-06-25T04:46:08.073Z,78.25
2019-06-25T04:47:09.485Z,78.29
2019-06-25T04:48:10.896Z,77.23
2019-06-25T04:49:12.306Z,77.33
2019-06-25T04:50:13.728Z,76.75
2019-06-25T04:51:15.143Z,76.55
2019-06-25T04:52:16.523Z,75.78
2019-06-25T04:53:17.925Z,75.59
2019-06-25T04:54:20.050Z,76.65
2019-06-25T04:55:21.472Z,75.82
2019-06-25T04:56:22.882Z,75.34
2019-06-25T04:57:24.305Z,75.62
2019-06-25T04:58:25.715Z,74.95
2019-06-25T04:59:27.121Z,74.76
2019-06-25T05:00:28.522Z,75.09
2019-06-25T05:01:29.959Z,73.93
2019-06-25T05:02:31.360Z,73.35
2019-06-25T05:03:32.772Z,73.35
2019-06-25T05:04:34.180Z,73.73
2019-06-25T05:05:35.584Z,73.54
2019-06-25T05:06:37.008Z,73.06
2019-06-25T05:07:38.410Z,72.61
2019-06-25T05:08:39.830Z,71.36
2019-06-25T05:09:41.239Z,70.97
2019-06-25T05:10:42.654Z,70.58
2019-06-25T05:11:44.072Z,69.32
2019-06-25T05:12:45.478Z,70.10
2019-06-25T05:13:46.902Z,70.39
2019-06-25T05:14:48.311Z,69.17
2019-06-25T05:15:49.745Z,68.52
2019-06-25T05:16:51.167Z,65.69
2019-06-25T05:17:52.714Z,65.01
2019-06-25T05:18:54.113Z,63.89
2019-06-25T05:19:57.549Z,63.08
2019-06-25T05:20:56.887Z,63.66
2019-06-25T05:21:58.316Z,63.49
2019-06-25T05:22:59.724Z,63.31
2019-06-25T05:24:01.139Z,63.18
2019-06-25T05:25:02.564Z,63.37
2019-06-25T05:26:04.679Z,63.46
2019-06-25T05:27:06.110Z,63.69
2019-06-25T05:28:07.487Z,63.21
2019-06-25T05:29:08.889Z,63.14
2019-06-25T05:30:10.305Z,62.56
2019-06-25T05:31:11.706Z,61.79
2019-06-25T05:32:13.124Z,61.49
2019-06-25T05:33:14.545Z,61.40
2019-06-25T05:34:16.001Z,61.69
2019-06-25T05:35:17.421Z,61.69
2019-06-25T05:36:18.846Z,61.79
2019-06-25T05:37:20.247Z,61.79
2019-06-25T05:38:21.657Z,61.52
2019-06-25T05:39:23.111Z,59.55
2019-06-25T05:40:24.522Z,57.64
2019-06-25T05:41:26.021Z,55.75
2019-06-25T05:42:27.428Z,54.39
2019-06-25T05:43:28.849Z,54.13
2019-06-25T05:44:30.257Z,54.20
2019-06-25T05:45:31.692Z,54.36
2019-06-25T05:46:33.102Z,54.94
2019-06-25T05:47:34.516Z,55.36
2019-06-25T05:48:36.035Z,55.04
2019-06-25T05:49:37.453Z,55.73
2019-06-25T05:50:38.860Z,55.04
2019-06-25T05:51:40.271Z,55.33
2019-06-25T05:52:41.686Z,55.63
2019-06-25T05:53:43.093Z,55.73
2019-06-25T05:54:44.510Z,55.89
2019-06-25T05:55:45.973Z,56.28
2019-06-25T05:56:47.364Z,56.76
2019-06-25T05:57:48.805Z,56.96
2019-06-25T05:58:50.209Z,57.61
2019-06-25T05:59:51.642Z,58.36
2019-06-25T06:00:53.063Z,59.88
2019-06-25T06:01:54.469Z,60.65
2019-06-25T06:02:55.913Z,60.46
2019-06-25T06:03:57.314Z,60.94
2019-06-25T06:04:58.727Z,61.49
2019-06-25T06:06:00.157Z,61.30
2019-06-25T06:07:01.577Z,61.85
2019-06-25T06:08:02.987Z,61.69
2019-06-25T06:09:04.404Z,62.07
2019-06-25T06:10:05.832Z,62.37
2019-06-25T06:11:07.271Z,62.56
2019-06-25T06:12:08.689Z,62.85
2019-06-25T06:13:10.105Z,62.30
2019-06-25T06:14:11.522Z,61.14
2019-06-25T06:15:12.941Z,60.94
2019-06-25T06:16:14.375Z,60.30
2019-06-25T06:17:15.804Z,60.30
2019-06-25T06:18:17.246Z,59.52
2019-06-25T06:19:18.673Z,59.45
2019-06-25T06:20:20.091Z,59.45
2019-06-25T06:21:21.528Z,58.51
2019-06-25T06:22:22.948Z,57.83
2019-06-25T06:23:24.360Z,57.83
2019-06-25T06:24:25.768Z,57.54
2019-06-25T06:25:27.322Z,57.25
2019-06-25T06:26:28.743Z,57.73
2019-06-25T06:27:30.149Z,57.80
2019-06-25T06:28:31.586Z,58.51
2019-06-25T06:29:33.005Z,58.51
2019-06-25T06:30:35.854Z,57.86
2019-06-25T06:31:35.780Z,58.25
2019-06-25T06:32:37.198Z,57.08
2019-06-25T06:33:38.610Z,56.89
2019-06-25T06:34:40.022Z,57.11
2019-06-25T06:35:42.338Z,56.04
2019-06-25T06:36:42.854Z,55.78
2019-06-25T06:37:44.277Z,55.55
2019-06-25T06:38:45.717Z,55.78
2019-06-25T06:39:47.147Z,55.68
2019-06-25T06:40:48.569Z,55.36
2019-06-25T06:41:49.978Z,55.46
2019-06-25T06:42:51.460Z,55.88
2019-06-25T06:43:52.848Z,55.85
2019-06-25T06:44:54.533Z,55.85
2019-06-25T06:45:55.674Z,56.52
2019-06-25T06:46:57.090Z,56.82
2019-06-25T06:47:58.502Z,56.72
2019-06-25T06:48:59.917Z,56.36
2019-06-25T06:50:01.341Z,55.58
2019-06-25T06:51:02.849Z,55.49
2019-06-25T06:52:04.211Z,55.78
2019-06-25T06:53:05.638Z,55.22
2019-06-25T06:54:07.060Z,55.32
2019-06-25T06:55:08.437Z,55.90
2019-06-25T06:56:09.866Z,55.03
2019-06-25T06:57:11.277Z,56.00
2019-06-25T06:58:12.697Z,55.22
2019-06-25T06:59:14.126Z,55.32
2019-06-25T07:00:15.528Z,55.29
2019-06-25T07:01:16.977Z,55.68
2019-06-25T07:02:18.367Z,56.36
2019-06-25T07:03:19.761Z,56.16
2019-06-25T07:04:21.198Z,56.46
2019-06-25T07:05:22.658Z,56.16
2019-06-25T07:06:24.070Z,56.16
2019-06-25T07:07:25.481Z,56.16
2019-06-25T07:08:26.913Z,55.58
2019-06-25T07:09:28.328Z,55.78
2019-06-25T07:10:29.751Z,56.07
2019-06-25T07:11:31.167Z,55.90
2019-06-25T07:12:32.581Z,55.90
2019-06-25T07:13:34.046Z,56.10
2019-06-25T07:14:35.389Z,56.49
2019-06-25T07:15:36.791Z,56.10
2019-06-25T07:16:39.425Z,55.88
2019-06-25T07:17:39.763Z,55.65
2019-06-25T07:18:41.019Z,57.11
2019-06-25T07:19:42.424Z,57.33
2019-06-25T07:20:43.843Z,57.23
2019-06-25T07:21:45.297Z,57.33
2019-06-25T07:22:46.714Z,57.14
2019-06-25T07:23:48.174Z,57.43
2019-06-25T07:24:49.611Z,56.07
2019-06-25T07:25:51.089Z,57.04
2019-06-25T07:26:52.383Z,56.95
2019-06-25T07:27:53.789Z,57.31
2019-06-25T07:28:55.217Z,57.62
2019-06-25T07:29:56.625Z,57.04
2019-06-25T07:30:58.066Z,57.04
2019-06-25T07:31:59.457Z,56.56
2019-06-25T07:33:00.884Z,57.33
2019-06-25T07:34:09.297Z,58.62
2019-06-25T07:35:03.722Z,57.26
2019-06-25T07:36:05.061Z,57.68
2019-06-25T07:37:06.524Z,56.32
2019-06-25T07:38:07.902Z,57.10
2019-06-25T07:39:12.533Z,55.93
2019-06-25T07:40:10.710Z,55.66
2019-06-25T07:41:12.151Z,55.35
2019-06-25T07:42:13.567Z,55.35
2019-06-25T07:43:14.960Z,55.83
2019-06-25T07:44:16.376Z,55.25
2019-06-25T07:45:17.786Z,55.74
2019-06-25T07:46:19.207Z,56.03
2019-06-25T07:47:20.638Z,55.76
2019-06-25T07:48:22.104Z,55.18
2019-06-25T07:49:23.476Z,55.47
2019-06-25T07:50:24.908Z,55.37
2019-06-25T07:51:26.326Z,55.18
2019-06-25T07:52:27.734Z,55.86
2019-06-25T07:53:29.181Z,54.40
2019-06-25T07:54:30.587Z,56.15
2019-06-25T07:55:32.001Z,55.30
2019-06-25T07:56:36.945Z,55.11
2019-06-25T07:57:34.800Z,55.18
2019-06-25T07:58:36.204Z,55.40
2019-06-25T07:59:37.623Z,55.40
2019-06-25T08:00:39.051Z,55.50
2019-06-25T08:01:40.480Z,55.30
2019-06-25T08:02:41.890Z,56.01
2019-06-25T08:03:43.294Z,55.13
2019-06-25T08:04:44.703Z,54.46
2019-06-25T08:05:46.115Z,54.06
2019-06-25T08:06:47.536Z,55.33
2019-06-25T08:07:48.932Z,55.91
2019-06-25T08:08:50.343Z,54.28
2019-06-25T08:09:51.759Z,53.99
2019-06-25T08:10:53.190Z,53.70
2019-06-25T08:11:54.607Z,53.28
2019-06-25T08:12:56.021Z,54.55
2019-06-25T08:13:57.425Z,54.91
2019-06-25T08:14:58.841Z,55.43
2019-06-25T08:16:00.262Z,54.94
2019-06-25T08:17:01.677Z,55.04
2019-06-25T08:18:03.105Z,54.52
2019-06-25T08:19:04.530Z,54.46
2019-06-25T08:20:05.958Z,55.43
2019-06-25T08:21:07.359Z,55.52
2019-06-25T08:22:08.778Z,55.46
2019-06-25T08:23:10.189Z,54.58
2019-06-25T08:24:11.619Z,53.41
2019-06-25T08:25:13.037Z,53.73
2019-06-25T08:26:14.442Z,52.36
2019-06-25T08:27:15.870Z,54.02
2019-06-25T08:28:17.319Z,53.56
2019-06-25T08:29:18.729Z,52.66
2019-06-25T08:30:20.138Z,52.56
2019-06-25T08:31:21.560Z,52.75
2019-06-25T08:32:25.425Z,52.26
2019-06-25T08:33:24.341Z,52.46
2019-06-25T08:34:37.835Z,52.85
2019-06-25T08:35:27.121Z,52.14
2019-06-25T08:36:28.528Z,53.89
2019-06-25T08:37:29.945Z,53.80
2019-06-25T08:38:31.348Z,53.63
2019-06-25T08:39:32.778Z,51.97
2019-06-25T08:40:34.198Z,53.24
2019-06-25T08:41:35.601Z,52.95
2019-06-25T08:42:37.013Z,53.63
2019-06-25T08:43:38.419Z,52.09
2019-06-25T08:44:39.832Z,52.56
2019-06-25T08:45:41.243Z,52.68
2019-06-25T08:46:42.647Z,53.66
2019-06-25T08:47:44.058Z,52.68
2019-06-25T08:48:48.668Z,52.00
2019-06-25T08:49:46.863Z,53.17
2019-06-25T08:50:48.295Z,52.00
2019-06-25T08:51:49.704Z,51.90
2019-06-25T08:52:58.078Z,51.51
2019-06-25T08:53:52.486Z,51.61
2019-06-25T08:54:53.879Z,51.51
2019-06-25T08:55:55.288Z,51.80
2019-06-25T08:56:56.835Z,51.41
2019-06-25T08:57:58.231Z,51.02
2019-06-25T08:58:59.646Z,51.31
2019-06-25T09:00:01.055Z,52.09
2019-06-25T09:01:02.494Z,51.21
2019-06-25T09:02:03.922Z,50.75
2019-06-25T09:03:05.321Z,50.56
2019-06-25T09:04:06.784Z,50.43
2019-06-25T09:05:08.216Z,50.95
2019-06-25T09:06:09.660Z,50.73
2019-06-25T09:07:11.061Z,50.53
2019-06-25T09:08:12.529Z,51.14
2019-06-25T09:09:13.926Z,51.34
2019-06-25T09:10:15.336Z,50.85
2019-06-25T09:11:16.746Z,51.14
2019-06-25T09:12:18.152Z,50.36
2019-06-25T09:13:19.559Z,50.65
2019-06-25T09:14:20.977Z,49.88
2019-06-25T09:15:22.413Z,50.65
2019-06-25T09:16:23.835Z,49.78
2019-06-25T09:17:25.267Z,50.26
2019-06-25T09:18:26.679Z,50.10
2019-06-25T09:19:28.137Z,50.00
2019-06-25T09:20:29.582Z,49.41
2019-06-25T09:21:30.997Z,50.00
2019-06-25T09:22:32.410Z,49.41
2019-06-25T09:23:33.869Z,50.39
2019-06-25T09:24:35.276Z,49.82
2019-06-25T09:25:36.712Z,49.33
2019-06-25T09:26:38.142Z,49.63
2019-06-25T09:27:39.578Z,48.16
2019-06-25T09:28:40.987Z,48.16
2019-06-25T09:29:45.087Z,48.93
2019-06-25T09:30:43.786Z,49.73
2019-06-25T09:31:45.208Z,49.04
2019-06-25T09:32:46.626Z,49.14
2019-06-25T09:33:48.047Z,48.07
2019-06-25T09:34:49.479Z,48.16
2019-06-25T09:35:50.904Z,49.33
2019-06-25T09:36:52.349Z,49.36
2019-06-25T09:37:53.750Z,47.38
2019-06-25T09:38:55.189Z,47.80
2019-06-25T09:39:58.499Z,47.60
2019-06-25T09:40:58.042Z,47.11
2019-06-25T09:41:59.471Z,46.43
2019-06-25T09:43:00.900Z,45.84
2019-06-25T09:44:02.333Z,46.82
2019-06-25T09:45:03.792Z,46.82
2019-06-25T09:46:05.227Z,45.84
2019-06-25T09:47:06.641Z,45.94
2019-06-25T09:48:08.043Z,47.50
2019-06-25T09:49:09.476Z,47.11
2019-06-25T09:50:10.880Z,45.76
2019-06-25T09:51:12.321Z,46.26
2019-06-25T09:52:14.479Z,45.37
2019-06-25T09:53:15.903Z,46.18
2019-06-25T09:54:17.319Z,44.42
2019-06-25T09:55:18.730Z,44.32
2019-06-25T09:56:20.699Z,43.34
2019-06-25T09:57:22.108Z,43.44
2019-06-25T09:58:23.538Z,44.52
2019-06-25T09:59:24.967Z,44.52
2019-06-25T10:00:26.390Z,42.85
2019-06-25T10:01:43.952Z,42.66
2019-06-25T10:02:29.192Z,42.64
2019-06-25T10:03:30.645Z,42.83
2019-06-25T10:04:35.573Z,43.42
2019-06-25T10:05:33.465Z,44.10
2019-06-25T10:06:34.909Z,46.45
2019-06-25T10:07:37.044Z,45.57
2019-06-25T10:08:38.452Z,43.32
2019-06-25T10:09:39.903Z,43.13
2019-06-25T10:10:41.329Z,43.71
2019-06-25T10:11:42.769Z,43.23
2019-06-25T10:12:44.181Z,43.52
2019-06-25T10:13:45.626Z,43.52
2019-06-25T10:14:46.995Z,43.13
2019-06-25T10:15:48.480Z,43.71
2019-06-25T10:16:49.903Z,42.83
2019-06-25T10:17:51.341Z,42.74
2019-06-25T10:18:52.833Z,43.13
2019-06-25T10:19:54.259Z,43.13
2019-06-25T10:20:55.673Z,43.34
2019-06-25T10:21:57.100Z,42.35
2019-06-25T10:22:58.748Z,42.74
2019-06-25T10:24:00.143Z,42.93
2019-06-25T10:25:01.810Z,42.95
2019-06-25T10:26:03.018Z,41.97
2019-06-25T10:27:04.452Z,41.09
2019-06-25T10:28:05.885Z,41.88
2019-06-25T10:29:07.371Z,41.78
2019-06-25T10:30:08.778Z,41.80
2019-06-25T10:31:10.279Z,41.11
2019-06-25T10:32:11.679Z,41.50
2019-06-25T10:33:13.109Z,41.31
2019-06-25T10:34:14.569Z,40.72
2019-06-25T10:35:16.026Z,41.70
2019-06-25T10:36:17.413Z,41.50
2019-06-25T10:37:18.870Z,41.09
2019-06-25T10:38:20.289Z,40.70
2019-06-25T10:39:21.682Z,41.29
2019-06-25T10:40:23.088Z,41.19
2019-06-25T10:41:24.498Z,41.78
2019-06-25T10:42:25.910Z,41.49
2019-06-25T10:43:28.222Z,40.50
2019-06-25T10:44:28.695Z,41.09
2019-06-25T10:45:30.132Z,41.88
2019-06-25T10:46:31.578Z,42.07
2019-06-25T10:47:33.002Z,40.90
2019-06-25T10:48:34.439Z,40.80
2019-06-25T10:49:35.864Z,40.97
2019-06-25T10:50:37.299Z,41.76
2019-06-25T10:51:38.825Z,41.68
2019-06-25T10:52:40.249Z,42.19
2019-06-25T10:53:41.666Z,40.53
2019-06-25T10:54:43.090Z,40.72
2019-06-25T10:55:44.518Z,40.84
2019-06-25T10:56:45.943Z,40.82
2019-06-25T10:57:47.365Z,40.16
2019-06-25T10:58:48.790Z,39.37
2019-06-25T10:59:50.200Z,38.29
2019-06-25T11:00:51.630Z,38.88
2019-06-25T11:01:53.046Z,39.15
2019-06-25T11:02:54.495Z,39.06
2019-06-25T11:03:55.929Z,39.54
2019-06-25T11:04:57.473Z,39.35
2019-06-25T11:06:05.712Z,39.66
2019-06-25T11:07:07.185Z,39.96
2019-06-25T11:08:01.710Z,38.78
2019-06-25T11:09:03.132Z,39.09
2019-06-25T11:10:04.573Z,39.29
2019-06-25T11:11:05.987Z,39.09
2019-06-25T11:12:07.388Z,37.92
2019-06-25T11:13:08.800Z,37.33
2019-06-25T11:14:10.231Z,37.52
2019-06-25T11:15:12.240Z,36.92
2019-06-25T11:16:13.734Z,37.71
2019-06-25T11:17:15.142Z,38.20
2019-06-25T11:18:16.582Z,38.00
2019-06-25T11:19:17.987Z,37.90
2019-06-25T11:20:19.420Z,38.29
2019-06-25T11:21:20.885Z,38.60
2019-06-25T11:22:22.394Z,38.12
2019-06-25T11:23:23.718Z,38.02
2019-06-25T11:24:25.141Z,37.92
2019-06-25T11:25:26.572Z,37.54
2019-06-25T11:26:28.004Z,37.45
2019-06-25T11:27:29.412Z,37.45
2019-06-25T11:28:30.822Z,37.66
2019-06-25T11:29:32.245Z,37.46
2019-06-25T11:30:33.672Z,37.27
2019-06-25T11:31:35.098Z,37.46
2019-06-25T11:32:36.517Z,37.68
2019-06-25T11:33:37.936Z,37.19
2019-06-25T11:34:39.358Z,37.88
2019-06-25T11:35:40.783Z,38.07
2019-06-25T11:36:42.197Z,37.68
2019-06-25T11:37:43.619Z,36.60
2019-06-25T11:38:45.036Z,35.91
2019-06-25T11:39:46.462Z,36.21
2019-06-25T11:40:47.888Z,36.62
2019-06-25T11:41:49.313Z,36.32
2019-06-25T11:42:50.737Z,35.75
2019-06-25T11:43:52.172Z,35.36
2019-06-25T11:44:53.656Z,34.41
2019-06-25T11:45:55.082Z,33.74
2019-06-25T11:46:56.520Z,34.03
2019-06-25T11:47:57.991Z,33.56
2019-06-25T11:48:59.406Z,33.39
2019-06-25T11:50:00.830Z,31.83
2019-06-25T11:51:02.326Z,31.86
2019-06-25T11:52:03.746Z,30.41
2019-06-25T11:53:05.167Z,30.04
2019-06-25T11:54:06.594Z,29.96
2019-06-25T11:55:08.008Z,28.69
2019-06-25T11:56:09.424Z,29.27
2019-06-25T11:57:10.851Z,28.55
2019-06-25T11:58:12.271Z,28.37
2019-06-25T11:59:13.838Z,28.59
2019-06-25T12:00:15.271Z,28.38
2019-06-25T12:01:16.682Z,28.38
2019-06-25T12:02:18.141Z,28.78
2019-06-25T12:03:20.499Z,29.55
2019-06-25T12:04:21.940Z,27.98
2019-06-25T12:05:23.374Z,28.37
2019-06-25T12:06:35.059Z,28.94
2019-06-25T12:07:26.189Z,29.13
2019-06-25T12:08:27.624Z,29.80
2019-06-25T12:09:29.045Z,29.41
2019-06-25T12:10:30.582Z,29.71
2019-06-25T12:11:32.010Z,30.21
2019-06-25T12:12:33.446Z,29.34
2019-06-25T12:13:34.872Z,28.85
2019-06-25T12:14:36.284Z,28.16
2019-06-25T12:15:37.706Z,28.65
2019-06-25T12:16:39.148Z,28.37
2019-06-25T12:17:40.552Z,27.98
2019-06-25T12:18:42.779Z,27.67
2019-06-25T12:19:48.467Z,28.24
2019-06-25T12:20:44.718Z,28.37
2019-06-25T12:21:46.180Z,29.19
2019-06-25T12:22:47.587Z,28.38
2019-06-25T12:23:48.999Z,27.89
2019-06-25T12:24:50.427Z,27.89
2019-06-25T12:25:51.834Z,29.19
2019-06-25T12:26:56.404Z,27.70
2019-06-25T12:27:54.643Z,27.31
2019-06-25T12:28:56.120Z,27.42
2019-06-25T12:29:57.516Z,27.22
2019-06-25T12:30:58.940Z,27.31
2019-06-25T12:32:00.353Z,27.90
2019-06-25T12:33:01.790Z,27.11
2019-06-25T12:34:03.258Z,27.01
2019-06-25T12:35:04.668Z,27.14
2019-06-25T12:36:06.114Z,27.04
2019-06-25T12:37:09.865Z,26.56
2019-06-25T12:38:08.889Z,26.07
2019-06-25T12:39:10.322Z,25.57
2019-06-25T12:40:11.752Z,26.17
2019-06-25T12:41:13.158Z,26.04
2019-06-25T12:42:14.577Z,26.34
2019-06-25T12:43:16.000Z,26.25
2019-06-25T12:44:17.410Z,26.14
2019-06-25T12:45:18.829Z,26.55
2019-06-25T12:46:20.289Z,26.55
2019-06-25T12:47:21.690Z,26.85
2019-06-25T12:48:23.529Z,26.26
2019-06-25T12:49:24.569Z,26.84
2019-06-25T12:50:25.977Z,26.51
2019-06-25T12:51:27.409Z,27.26
2019-06-25T12:52:28.838Z,28.34
2019-06-25T12:53:30.244Z,28.82
2019-06-25T12:54:31.667Z,29.89
2019-06-25T12:55:33.101Z,29.97
2019-06-25T12:56:34.543Z,30.15
2019-06-25T12:57:35.962Z,30.91
2019-06-25T12:58:37.383Z,31.39
2019-06-25T12:59:38.813Z,32.46
2019-06-25T13:00:40.251Z,33.43
2019-06-25T13:01:42.062Z,33.82
2019-06-25T13:02:43.056Z,33.03
2019-06-25T13:03:44.473Z,34.11
2019-06-25T13:04:45.936Z,32.74
2019-06-25T13:05:47.326Z,33.12
2019-06-25T13:06:48.766Z,33.31
2019-06-25T13:07:50.254Z,34.00
2019-06-25T13:08:51.674Z,34.00
2019-06-25T13:09:53.012Z,33.98
2019-06-25T13:10:55.210Z,34.58